Flinton, Pennsylvania
Current Conditions -  °F | °C
As of 5:54 PM on Saturday 25 Oct 2014 (Local Time) from KFIG Reporting Station
Overcast Overcast  
Wind Chill: 62°   Ceiling: 4300
Heat Index: 62°   Visibility: 10mi
Dew Point: 48°   Wind: 12mph
Humidity: 60%   Direction: 240°WSW
Pressure: 29.7"   Gusts: 23mph
Location:  40.71°N, 78.52°W
Report Text: KFIG 252154Z AUTO 24010G20KT 10SM BKN043 OVC050 17/09 A2970 RMK AO2 SLP058 T01670089
Loading
Personal Weather Stations






























Interactive Weather Map
Tropical Storm Tracking
New forecast layout! Learn more

10-Day Weather Forecast

Advertisements
Track Severe Weather on mobile